Terminal Aerodrome Forecast
Issued by NWS Flagstaff, AZ

Home | Current Version | Previous Version | Text Only | Print | Product List | Glossary On
Versions: 1 2 3 4 5 6 7 8 9 10 11 12 13 14 15 16 17 18 19 20 21 22 23 24 25 26 27 28
000
FTUS45 KFGZ 012300
TAFINW
TAF
KINW 012320Z 0200/0224 VRB05KT P6SM FEW250
     FM021000 11005KT 2SM BR OVC005
      TEMPO 0213/0217 1/2SM FG
     FM022000 VRB06KT P6SM SCT250=

USA.gov is the U.S. government's official web portal to all federal, state and local government web resources and services.